Time;durP1;ratioP1;P1;durP2;ratioP2;P2;SDS_P1;SDS_P2;PMS_P1;PMS_P2;Temp;Humidity;BMP_temperature;BMP_pressure;BME280_temperature;BME280_humidity;BME280_pressure;Samples;Min_cycle;Max_cycle;Signal;HPM_P1;HPM_P2
2021/12/20 00:02:03;;;;;;;4.45;1.90;;;;;;;2.35;70.06;98736.36;1669336;84;21050;-62
2021/12/20 00:04:30;;;;;;;4.47;1.50;;;;;;;2.26;70.12;98735.27;1667216;83;21087;-62
2021/12/20 00:06:57;;;;;;;4.53;1.60;;;;;;;2.19;70.28;98749.16;1686302;83;21093;-61
2021/12/20 00:09:23;;;;;;;4.28;1.32;;;;;;;2.17;70.45;98748.89;1688834;83;21102;-61
2021/12/20 00:11:50;;;;;;;5.50;1.52;;;;;;;2.14;70.38;98751.25;1692138;83;21114;-62
2021/12/20 00:14:16;;;;;;;5.17;1.52;;;;;;;2.19;70.38;98748.33;1649696;84;21631;-61
2021/12/20 00:16:43;;;;;;;3.62;1.27;;;;;;;2.31;70.14;98750.03;1681361;83;21239;-61
2021/12/20 00:19:09;;;;;;;4.95;1.50;;;;;;;2.40;69.90;98764.97;1667102;84;21544;-61
2021/12/20 00:21:37;;;;;;;3.67;1.30;;;;;;;2.36;69.80;98763.51;1687886;84;21114;-62
2021/12/20 00:24:04;;;;;;;3.92;1.45;;;;;;;2.38;69.90;98767.30;1685653;83;21098;-62
2021/12/20 00:26:31;;;;;;;3.52;1.07;;;;;;;2.34;69.72;98771.88;1675194;83;21106;-62
2021/12/20 00:28:57;;;;;;;4.62;1.80;;;;;;;2.33;69.81;98770.69;1676671;84;22373;-61
2021/12/20 00:31:24;;;;;;;3.87;1.32;;;;;;;2.35;69.86;98768.81;1667015;82;21077;-62
2021/12/20 00:33:51;;;;;;;3.72;1.10;;;;;;;2.39;69.67;98776.75;1676041;82;21431;-61
2021/12/20 00:36:21;;;;;;;4.00;1.27;;;;;;;2.48;69.28;98777.85;1677371;82;21484;-61
2021/12/20 00:41:30;;;;;;;3.35;1.00;;;;;;;2.49;69.05;98776.89;1701836;82;21241;-62
2021/12/20 00:43:57;;;;;;;4.53;1.15;;;;;;;2.44;69.27;98780.30;1707207;83;21050;-61
2021/12/20 00:46:23;;;;;;;4.05;1.30;;;;;;;2.41;69.24;98777.47;1680571;83;21059;-61
2021/12/20 00:48:50;;;;;;;3.95;1.32;;;;;;;2.36;69.41;98780.86;1682828;82;21138;-61
2021/12/20 00:51:16;;;;;;;3.12;0.90;;;;;;;2.34;69.56;98780.15;1712095;82;21080;-61
2021/12/20 00:53:44;;;;;;;2.83;0.80;;;;;;;2.37;69.52;98787.24;1701704;83;21087;-61
2021/12/20 00:56:10;;;;;;;3.70;0.88;;;;;;;2.49;69.23;98797.22;1680812;83;21042;-61
2021/12/20 00:58:37;;;;;;;4.60;1.20;;;;;;;2.53;68.98;98782.23;1680793;83;21071;-61
2021/12/20 01:01:03;;;;;;;3.10;1.05;;;;;;;2.52;69.22;98788.36;1707360;82;21565;-61
2021/12/20 01:03:31;;;;;;;3.95;1.10;;;;;;;2.54;69.00;98790.38;1705501;82;21166;-61
2021/12/20 01:05:59;;;;;;;2.85;0.85;;;;;;;2.62;68.75;98798.44;1745603;80;22199;-61
2021/12/20 01:08:28;;;;;;;1.80;0.40;;;;;;;2.68;68.61;98790.69;1742475;80;21046;-61
2021/12/20 01:10:55;;;;;;;2.00;0.40;;;;;;;2.67;68.83;98792.44;1709378;80;21070;-62
2021/12/20 01:13:23;;;;;;;1.70;0.53;;;;;;;2.62;68.86;98803.63;1741320;80;21109;-61
2021/12/20 01:15:53;;;;;;;2.05;0.62;;;;;;;2.54;69.49;98802.05;1710729;80;21052;-62
2021/12/20 01:18:20;;;;;;;2.65;0.80;;;;;;;2.39;70.36;98795.75;1736705;80;21593;-61
2021/12/20 01:20:46;;;;;;;2.08;0.50;;;;;;;2.34;70.86;98790.53;1739030;80;21102;-61
2021/12/20 01:23:13;;;;;;;4.90;0.80;;;;;;;2.41;70.81;98793.86;1693193;80;21586;-62
2021/12/20 01:25:41;;;;;;;2.87;0.90;;;;;;;2.45;70.68;98799.66;1741315;80;21122;-61
2021/12/20 01:28:08;;;;;;;2.80;0.80;;;;;;;2.43;70.78;98807.21;1744365;80;21522;-61
2021/12/20 01:30:34;;;;;;;1.60;0.50;;;;;;;2.34;71.18;98806.92;1738701;80;21129;-61
2021/12/20 01:33:02;;;;;;;2.90;0.50;;;;;;;2.33;71.25;98805.73;1727295;80;20970;-62
2021/12/20 01:35:29;;;;;;;1.40;0.42;;;;;;;2.27;70.80;98796.63;1718862;81;21090;-61
2021/12/20 01:37:55;;;;;;;1.72;0.40;;;;;;;2.20;70.98;98798.83;1714955;81;21050;-62
2021/12/20 01:40:22;;;;;;;3.55;1.05;;;;;;;2.13;71.12;98794.17;1724514;81;21094;-61
2021/12/20 01:42:52;;;;;;;3.67;1.12;;;;;;;2.11;71.20;98794.75;1725037;80;21104;-61
2021/12/20 01:45:22;;;;;;;3.05;0.90;;;;;;;2.19;71.08;98803.64;1701630;81;21139;-61
2021/12/20 01:47:52;;;;;;;2.92;0.90;;;;;;;2.26;70.83;98797.55;1723321;81;21086;-61
2021/12/20 01:50:23;;;;;;;3.08;0.82;;;;;;;2.25;70.39;98802.85;1725530;81;21026;-61
2021/12/20 01:52:45;;;;;;;3.25;0.70;;;;;;;2.17;70.33;98797.74;1722410;81;21066;-61
2021/12/20 01:55:14;;;;;;;2.83;0.80;;;;;;;2.11;70.41;98796.05;1702874;82;21199;-62
2021/12/20 01:57:41;;;;;;;3.05;0.90;;;;;;;2.05;70.66;98794.70;1716007;81;21131;-61
2021/12/20 02:00:15;;;;;;;3.33;0.88;;;;;;;2.02;70.62;98796.23;1723806;80;21415;-61
2021/12/20 02:02:44;;;;;;;2.92;0.80;;;;;;;1.98;70.67;98802.08;1715589;81;21517;-61
2021/12/20 02:05:21;;;;;;;2.98;0.85;;;;;;;2.01;70.39;98795.38;1728212;81;21042;-61
2021/12/20 02:08:00;;;;;;;2.98;0.85;;;;;;;2.11;70.06;98798.17;1724734;81;21842;-61
2021/12/20 02:10:21;;;;;;;3.95;1.20;;;;;;;2.13;70.00;98798.06;1715088;81;21936;-61
2021/12/20 02:12:49;;;;;;;2.52;0.90;;;;;;;2.09;69.95;98796.16;1719655;81;21050;-62
2021/12/20 02:15:16;;;;;;;2.35;0.72;;;;;;;2.02;70.07;98799.65;1719002;81;21103;-61
2021/12/20 02:17:42;;;;;;;2.62;0.80;;;;;;;1.99;70.16;98792.55;1712205;81;21012;-61
2021/12/20 02:20:11;;;;;;;2.87;0.90;;;;;;;1.95;70.22;98794.53;1722786;80;21200;-61
2021/12/20 02:22:38;;;;;;;3.17;0.80;;;;;;;1.90;70.20;98795.33;1642830;85;21147;-61
2021/12/20 02:25:07;;;;;;;3.98;0.90;;;;;;;1.94;70.07;98797.23;1725079;81;21049;-61
2021/12/20 02:27:33;;;;;;;3.25;0.90;;;;;;;2.02;70.00;98798.83;1725041;81;21082;-61
2021/12/20 02:30:10;;;;;;;3.87;0.85;;;;;;;2.06;70.04;98799.44;1724386;80;21132;-62
2021/12/20 02:37:58;;;;;;;3.33;0.95;;;;;;;1.95;69.80;98813.99;1704648;81;21070;-61
2021/12/20 02:40:24;;;;;;;2.83;0.80;;;;;;;1.86;69.96;98809.42;1720712;81;22276;-62
2021/12/20 02:42:52;;;;;;;3.27;0.85;;;;;;;1.86;69.99;98811.55;1717562;81;21059;-62
2021/12/20 02:45:19;;;;;;;4.37;1.32;;;;;;;1.98;69.93;98820.23;1723624;81;21171;-61
2021/12/20 02:47:47;;;;;;;3.33;0.85;;;;;;;2.05;69.73;98820.64;1724714;80;21393;-61
2021/12/20 02:50:14;;;;;;;4.17;1.15;;;;;;;2.01;69.49;98817.44;1723852;81;21067;-61
2021/12/20 02:52:40;;;;;;;2.58;0.65;;;;;;;1.96;69.60;98815.63;1688761;82;21298;-61
2021/12/20 02:55:09;;;;;;;3.02;1.20;;;;;;;1.91;69.50;98820.79;1722988;81;21092;-61
2021/12/20 02:57:36;;;;;;;3.52;0.88;;;;;;;1.84;69.57;98824.27;1727011;81;21096;-62
2021/12/20 03:00:06;;;;;;;2.47;0.80;;;;;;;1.78;69.40;98827.28;1724279;81;21066;-61
2021/12/20 03:02:34;;;;;;;3.27;1.02;;;;;;;1.76;69.43;98825.27;1703535;81;21064;-61
2021/12/20 03:05:02;;;;;;;3.58;1.20;;;;;;;1.71;69.64;98819.56;1723230;80;21102;-61
2021/12/20 03:07:28;;;;;;;2.75;0.82;;;;;;;1.76;69.77;98823.97;1705814;81;22051;-62
2021/12/20 03:10:01;;;;;;;2.60;1.05;;;;;;;1.85;69.38;98817.69;1726891;81;21104;-61
2021/12/20 03:12:28;;;;;;;3.72;0.90;;;;;;;1.85;69.28;98822.05;1723335;81;21104;-61
2021/12/20 03:15:00;;;;;;;4.40;0.93;;;;;;;1.83;69.42;98822.60;1719843;81;21087;-61
2021/12/20 03:17:22;;;;;;;4.15;1.20;;;;;;;1.79;69.45;98816.80;1723259;80;21076;-61
2021/12/20 03:19:48;;;;;;;2.60;0.78;;;;;;;1.82;69.39;98817.07;1725866;81;21106;-61
2021/12/20 03:22:16;;;;;;;2.17;0.65;;;;;;;1.80;69.12;98822.36;1724036;81;21111;-60
2021/12/20 03:24:43;;;;;;;3.27;0.62;;;;;;;1.78;69.12;98821.64;1722506;81;21724;-60
2021/12/20 03:27:09;;;;;;;2.37;0.65;;;;;;;1.74;69.24;98820.18;1717187;81;21439;-61
2021/12/20 03:29:35;;;;;;;2.55;0.70;;;;;;;1.79;69.33;98825.06;1715889;81;21063;-60
2021/12/20 03:32:03;;;;;;;2.67;0.65;;;;;;;1.86;68.97;98826.28;1702335;81;21091;-61
2021/12/20 03:34:29;;;;;;;2.58;0.82;;;;;;;1.88;68.79;98826.19;1728480;81;21146;-60
2021/12/20 03:36:56;;;;;;;3.85;1.15;;;;;;;1.85;68.97;98831.12;1725632;81;21078;-61
2021/12/20 03:39:23;;;;;;;3.92;0.70;;;;;;;1.82;68.87;98826.97;1727677;81;21061;-61
2021/12/20 03:41:50;;;;;;;6.12;1.20;;;;;;;1.78;68.97;98835.91;1727573;81;21050;-61
2021/12/20 03:44:16;;;;;;;4.58;1.00;;;;;;;1.76;69.04;98827.86;1722518;81;21166;-61
2021/12/20 03:46:43;;;;;;;6.95;1.92;;;;;;;1.76;69.12;98826.56;1725475;81;21144;-61
2021/12/20 03:49:09;;;;;;;7.50;2.92;;;;;;;1.74;69.18;98826.66;1720027;81;21117;-60
2021/12/20 03:51:36;;;;;;;5.90;2.80;;;;;;;1.79;69.20;98826.36;1704940;81;21367;-61
2021/12/20 03:54:03;;;;;;;7.15;2.50;;;;;;;1.82;69.14;98830.04;1717195;81;21067;-61
2021/12/20 03:56:30;;;;;;;3.85;1.62;;;;;;;1.85;68.80;98829.84;1722046;81;21081;-61
2021/12/20 03:58:56;;;;;;;4.25;1.47;;;;;;;1.96;68.54;98837.68;1698318;81;21373;-61
2021/12/20 04:01:25;;;;;;;4.30;1.50;;;;;;;2.01;68.25;98838.19;1715484;81;21035;-60
2021/12/20 04:03:51;;;;;;;4.85;1.98;;;;;;;2.00;67.97;98843.03;1722268;81;21549;-61
2021/12/20 04:06:17;;;;;;;3.15;0.95;;;;;;;1.96;68.05;98838.98;1719671;81;21111;-61
2021/12/20 04:08:44;;;;;;;5.53;1.25;;;;;;;1.91;68.04;98847.55;1704547;81;21545;-61
2021/12/20 04:11:10;;;;;;;3.08;1.10;;;;;;;1.87;68.15;98847.41;1724151;81;21222;-61
2021/12/20 04:13:37;;;;;;;5.47;1.72;;;;;;;1.83;68.25;98849.39;1721913;81;21531;-61
2021/12/20 04:16:04;;;;;;;4.40;1.30;;;;;;;1.84;68.50;98850.20;1721728;81;21077;-61
2021/12/20 04:18:32;;;;;;;2.95;0.95;;;;;;;1.82;68.76;98849.49;1721389;81;21090;-61
2021/12/20 04:20:59;;;;;;;3.65;1.40;;;;;;;1.83;69.35;98852.43;1703863;81;21607;-61
2021/12/20 04:23:25;;;;;;;1.72;0.47;;;;;;;1.83;69.25;98855.88;1720939;81;21001;-62
2021/12/20 04:25:52;;;;;;;5.60;0.98;;;;;;;1.89;69.08;98859.80;1702730;81;21545;-61
2021/12/20 04:28:19;;;;;;;2.15;0.93;;;;;;;1.90;68.82;98871.84;1701353;81;21111;-61
2021/12/20 04:30:45;;;;;;;3.90;1.72;;;;;;;1.85;68.82;98866.14;1719237;81;21035;-61
2021/12/20 04:33:11;;;;;;;4.78;1.10;;;;;;;1.81;68.92;98870.69;1716655;81;21079;-61
2021/12/20 04:35:38;;;;;;;3.12;0.80;;;;;;;1.76;68.94;98865.45;1699815;81;22809;-60
2021/12/20 04:38:07;;;;;;;3.85;1.22;;;;;;;1.73;68.94;98868.26;1716628;81;21093;-61
2021/12/20 04:40:35;;;;;;;4.62;1.27;;;;;;;1.75;69.04;98867.23;1718415;80;21135;-61
2021/12/20 04:43:01;;;;;;;3.95;1.20;;;;;;;1.74;69.29;98867.33;1718449;81;21588;-62
2021/12/20 04:45:29;;;;;;;4.00;1.55;;;;;;;1.81;69.34;98868.56;1722534;81;21077;-62
2021/12/20 04:47:55;;;;;;;2.85;1.00;;;;;;;1.80;69.31;98868.19;1720114;81;21459;-62
2021/12/20 04:50:22;;;;;;;5.58;1.00;;;;;;;1.89;69.40;98871.47;1723632;81;21067;-61
2021/12/20 04:52:50;;;;;;;3.95;1.20;;;;;;;1.96;69.09;98872.70;1717775;81;21383;-62
2021/12/20 04:55:16;;;;;;;6.40;1.20;;;;;;;1.92;69.18;98870.45;1725284;81;21086;-61
2021/12/20 04:57:43;;;;;;;4.20;1.00;;;;;;;1.91;69.54;98877.38;1717142;80;21105;-60
2021/12/20 05:00:14;;;;;;;3.08;1.05;;;;;;;1.89;69.57;98878.44;1718996;81;21049;-61
2021/12/20 05:02:40;;;;;;;4.80;1.15;;;;;;;1.83;69.65;98878.36;1719082;81;21108;-60
2021/12/20 05:05:09;;;;;;;2.87;0.98;;;;;;;1.79;69.73;98879.52;1719944;81;21075;-62
2021/12/20 05:07:38;;;;;;;4.22;1.40;;;;;;;1.73;69.79;98887.27;1720031;81;21066;-60
2021/12/20 05:10:09;;;;;;;4.67;1.20;;;;;;;1.68;70.00;98878.94;1718671;81;21122;-60
2021/12/20 05:12:37;;;;;;;2.62;0.70;;;;;;;1.74;70.07;98889.38;1721323;81;22470;-60
2021/12/20 05:15:05;;;;;;;2.75;0.80;;;;;;;1.82;70.12;98890.99;1722299;80;21111;-61
2021/12/20 05:17:34;;;;;;;3.80;0.88;;;;;;;1.87;70.11;98885.02;1725051;80;21081;-64
2021/12/20 05:20:02;;;;;;;3.65;0.80;;;;;;;1.83;70.25;98886.14;1723112;81;21038;-62
2021/12/20 05:22:28;;;;;;;2.55;0.98;;;;;;;1.80;70.69;98888.94;1726112;81;21169;-60
2021/12/20 05:24:55;;;;;;;2.83;0.90;;;;;;;1.79;70.70;98882.11;1721332;81;21065;-61
2021/12/20 05:27:21;;;;;;;2.52;0.78;;;;;;;1.75;70.41;98887.13;1715543;81;21074;-61
2021/12/20 05:29:49;;;;;;;2.77;0.72;;;;;;;1.76;70.54;98883.61;1717754;81;21049;-60
2021/12/20 05:32:17;;;;;;;2.58;0.95;;;;;;;1.85;70.08;98883.83;1728026;81;22215;-59
2021/12/20 05:34:44;;;;;;;3.17;0.98;;;;;;;1.89;69.78;98884.92;1734576;80;21023;-61
2021/12/20 05:37:13;;;;;;;3.35;1.02;;;;;;;1.83;69.48;98892.19;1738923;80;21805;-60
2021/12/20 05:39:40;;;;;;;2.70;0.78;;;;;;;1.74;69.31;98894.09;1661494;84;22061;-61
2021/12/20 05:42:07;;;;;;;2.77;0.70;;;;;;;1.65;69.54;98890.83;1663521;85;21092;-61
2021/12/20 05:44:33;;;;;;;4.90;1.20;;;;;;;1.57;69.94;98896.52;1740807;81;21032;-61
2021/12/20 05:47:00;;;;;;;3.95;1.10;;;;;;;1.60;69.77;98905.87;1709296;82;21094;-60
2021/12/20 05:49:26;;;;;;;3.05;0.90;;;;;;;1.54;69.54;98907.09;1741856;81;21757;-61
2021/12/20 05:51:53;;;;;;;2.77;0.90;;;;;;;1.58;69.47;98906.41;1736482;81;21109;-61
2021/12/20 05:54:19;;;;;;;3.72;0.93;;;;;;;1.66;69.26;98917.95;1710438;80;21050;-60
2021/12/20 05:56:45;;;;;;;2.52;0.68;;;;;;;1.67;68.94;98918.30;1716675;82;21498;-61
2021/12/20 05:59:12;;;;;;;4.22;1.17;;;;;;;1.61;69.04;98927.77;1716430;82;21085;-60
2021/12/20 06:01:38;;;;;;;3.20;1.07;;;;;;;1.55;69.05;98924.79;1738592;80;21859;-60
2021/12/20 06:04:04;;;;;;;2.52;0.70;;;;;;;1.47;69.29;98928.70;1738106;80;21595;-61
2021/12/20 06:06:32;;;;;;;3.75;1.10;;;;;;;1.44;69.49;98928.89;1739803;80;21068;-61
2021/12/20 06:08:58;;;;;;;2.70;0.80;;;;;;;1.46;69.42;98925.75;1741419;80;21487;-60
2021/12/20 06:11:25;;;;;;;3.60;1.07;;;;;;;1.49;69.43;98934.60;1738855;80;21035;-61
2021/12/20 06:13:52;;;;;;;3.05;1.05;;;;;;;1.52;69.47;98940.54;1742434;81;22626;-61
2021/12/20 06:16:20;;;;;;;3.95;1.17;;;;;;;1.58;69.50;98946.59;1739341;80;21080;-61
2021/12/20 06:18:46;;;;;;;6.85;1.57;;;;;;;1.61;69.08;98936.85;1740524;81;21074;-60
2021/12/20 06:21:13;;;;;;;4.17;1.20;;;;;;;1.65;69.10;98938.80;1736831;80;22134;-60
2021/12/20 06:23:40;;;;;;;3.72;1.17;;;;;;;1.70;69.02;98940.63;1743337;81;20987;-60
2021/12/20 06:26:06;;;;;;;4.22;1.00;;;;;;;1.73;68.86;98943.02;1739851;80;21199;-61
2021/12/20 06:28:32;;;;;;;4.05;1.65;;;;;;;1.77;68.55;98943.64;1741333;80;21606;-61
2021/12/20 06:30:59;;;;;;;3.05;1.07;;;;;;;1.78;68.43;98947.43;1738123;80;21053;-61
2021/12/20 06:33:25;;;;;;;4.67;1.52;;;;;;;1.80;68.32;98945.55;1740081;81;20980;-61
2021/12/20 06:35:52;;;;;;;5.55;1.35;;;;;;;1.81;68.45;98945.08;1746948;80;21072;-61
2021/12/20 06:38:20;;;;;;;3.80;1.15;;;;;;;1.90;68.20;98947.08;1748450;80;23298;-61
2021/12/20 06:40:47;;;;;;;3.72;1.22;;;;;;;2.03;67.79;98959.59;1748638;80;21070;-61
2021/12/20 06:43:14;;;;;;;3.40;1.27;;;;;;;2.06;67.69;98955.94;1723031;81;21502;-61
2021/12/20 06:45:40;;;;;;;3.52;1.12;;;;;;;2.07;67.81;98958.05;1717478;80;21129;-60
2021/12/20 06:48:07;;;;;;;6.12;1.65;;;;;;;2.08;67.61;98961.02;1749268;80;21062;-61
2021/12/20 06:50:33;;;;;;;4.03;1.07;;;;;;;2.04;67.64;98964.30;1720194;81;21739;-60
2021/12/20 06:53:00;;;;;;;3.35;1.22;;;;;;;2.00;67.86;98962.83;1744576;80;21072;-61
2021/12/20 06:55:26;;;;;;;4.03;1.10;;;;;;;2.02;67.86;98970.88;1749183;80;20975;-61
2021/12/20 06:57:52;;;;;;;3.27;1.07;;;;;;;1.99;67.69;98974.98;1722994;81;22236;-61
2021/12/20 07:00:19;;;;;;;4.15;1.00;;;;;;;2.00;67.82;98974.05;1747393;81;21025;-61
2021/12/20 07:02:47;;;;;;;4.35;1.37;;;;;;;2.09;67.73;98979.09;1744135;80;21462;-60
2021/12/20 07:05:13;;;;;;;5.08;1.20;;;;;;;2.13;67.61;98982.30;1720591;80;21093;-60
2021/12/20 07:07:41;;;;;;;4.03;1.20;;;;;;;2.11;67.64;98982.88;1745993;80;21123;-60
2021/12/20 07:10:09;;;;;;;3.70;1.05;;;;;;;2.08;67.58;98983.08;1739566;80;21064;-61
2021/12/20 07:12:38;;;;;;;4.92;1.42;;;;;;;2.06;67.86;98979.28;1687770;83;21553;-62
2021/12/20 07:15:06;;;;;;;3.80;1.22;;;;;;;2.09;67.79;98978.27;1705823;82;21395;-64
2021/12/20 07:17:32;;;;;;;4.75;1.80;;;;;;;2.10;67.66;98982.05;1673701;83;21146;-61
2021/12/20 07:19:59;;;;;;;5.67;2.30;;;;;;;2.12;67.48;98977.59;1689785;83;21105;-61
2021/12/20 07:22:25;;;;;;;7.28;3.60;;;;;;;2.13;67.56;98981.82;1690053;83;21069;-62
2021/12/20 07:24:52;;;;;;;3.87;1.47;;;;;;;2.16;67.39;98992.00;1695391;82;21217;-61
2021/12/20 07:27:19;;;;;;;3.95;1.82;;;;;;;2.13;67.38;98991.38;1696343;83;21149;-61
2021/12/20 07:29:45;;;;;;;5.15;1.80;;;;;;;2.13;67.50;98990.08;1679020;83;21012;-62
2021/12/20 07:32:11;;;;;;;6.05;1.75;;;;;;;2.11;67.61;98994.55;1699388;83;21090;-61
2021/12/20 07:34:40;;;;;;;4.87;1.35;;;;;;;2.18;67.40;98991.90;1672963;83;21136;-62
2021/12/20 07:37:06;;;;;;;3.65;1.20;;;;;;;2.29;67.37;98999.80;1694050;83;21301;-61
2021/12/20 07:39:33;;;;;;;5.30;1.70;;;;;;;2.34;67.03;98999.49;1694510;83;21104;-62
2021/12/20 07:42:00;;;;;;;3.65;1.15;;;;;;;2.34;67.12;99009.40;1652010;85;21844;-62
2021/12/20 07:44:26;;;;;;;5.20;1.65;;;;;;;2.31;67.17;99007.48;1666929;84;21130;-62
2021/12/20 07:46:53;;;;;;;4.62;1.70;;;;;;;2.28;67.31;99007.21;1702368;81;21197;-60
2021/12/20 07:49:21;;;;;;;4.87;1.32;;;;;;;2.29;67.09;99020.56;1724885;81;21075;-60
2021/12/20 07:51:51;;;;;;;4.97;1.80;;;;;;;2.24;67.11;99020.05;1728444;81;21143;-61
2021/12/20 07:54:16;;;;;;;4.40;1.75;;;;;;;2.25;67.14;99022.98;1708954;82;21083;-61
2021/12/20 07:56:43;;;;;;;4.33;1.42;;;;;;;2.25;67.11;99029.95;1704764;82;21008;-61
2021/12/20 07:59:09;;;;;;;4.85;1.65;;;;;;;2.19;66.87;99027.31;1704709;81;21044;-61
2021/12/20 08:01:35;;;;;;;3.52;1.20;;;;;;;2.24;66.88;99029.12;1723387;81;21130;-61
2021/12/20 08:04:03;;;;;;;7.15;1.80;;;;;;;2.30;66.75;99034.36;1708518;81;21126;-61
2021/12/20 08:06:30;;;;;;;5.37;1.55;;;;;;;2.29;67.09;99036.14;1726583;81;21075;-61
2021/12/20 08:08:56;;;;;;;5.03;2.25;;;;;;;2.33;66.75;99037.58;1707814;82;21053;-61
2021/12/20 08:11:23;;;;;;;4.22;1.50;;;;;;;2.33;66.69;99041.95;1721214;81;21082;-61
2021/12/20 08:13:49;;;;;;;5.20;1.95;;;;;;;2.31;66.63;99033.44;1727545;80;21104;-60
2021/12/20 08:16:16;;;;;;;4.28;1.92;;;;;;;2.28;66.79;99037.06;1699055;81;21230;-61
2021/12/20 08:18:43;;;;;;;4.50;1.60;;;;;;;2.32;66.80;99032.05;1722756;81;21041;-62
2021/12/20 08:21:10;;;;;;;4.70;1.90;;;;;;;2.33;66.70;99031.09;1725280;80;21125;-61
2021/12/20 08:23:37;;;;;;;9.70;2.17;;;;;;;2.32;66.67;99037.23;1723958;81;21058;-62
2021/12/20 08:26:04;;;;;;;9.68;2.50;;;;;;;2.31;66.79;99030.37;1731289;81;21650;-60
2021/12/20 08:28:32;;;;;;;5.75;2.08;;;;;;;2.37;66.81;99025.22;1724003;80;21139;-60
2021/12/20 08:30:58;;;;;;;7.28;2.60;;;;;;;2.37;66.50;99032.56;1722099;81;21498;-61
2021/12/20 08:33:25;;;;;;;7.97;2.30;;;;;;;2.46;66.54;99030.28;1724558;81;21540;-62
2021/12/20 08:35:53;;;;;;;5.17;2.20;;;;;;;2.57;66.30;99031.20;1723760;80;21313;-62
2021/12/20 08:38:19;;;;;;;9.88;2.55;;;;;;;2.69;66.13;99035.17;1727844;82;21040;-61
2021/12/20 08:40:46;;;;;;;4.83;2.02;;;;;;;2.71;65.52;99037.22;1724358;81;21114;-62
2021/12/20 08:43:14;;;;;;;5.35;1.90;;;;;;;2.73;65.34;99035.34;1702500;82;21398;-61
2021/12/20 08:45:42;;;;;;;5.78;1.85;;;;;;;2.77;65.21;99037.62;1725233;81;21091;-61
2021/12/20 08:48:08;;;;;;;3.55;1.37;;;;;;;2.78;64.78;99029.36;1720433;81;21146;-60
2021/12/20 08:50:35;;;;;;;4.50;1.55;;;;;;;2.74;64.48;99039.13;1701449;81;21102;-60
2021/12/20 08:53:02;;;;;;;5.00;1.72;;;;;;;2.73;64.31;99036.64;1727983;80;21099;-60
2021/12/20 08:55:28;;;;;;;7.35;2.35;;;;;;;2.71;64.45;99045.01;1713272;80;21079;-60
2021/12/20 08:57:55;;;;;;;4.85;1.67;;;;;;;2.71;64.48;99042.41;1729235;82;21057;-60
2021/12/20 09:00:25;;;;;;;4.72;1.87;;;;;;;2.69;63.83;99046.41;1723021;81;21063;-60
2021/12/20 09:02:52;;;;;;;6.40;2.33;;;;;;;2.68;63.80;99041.32;1724685;81;21606;-60
2021/12/20 09:05:20;;;;;;;5.08;1.50;;;;;;;2.64;64.06;99056.28;1719595;82;21151;-61
2021/12/20 09:07:46;;;;;;;4.87;1.98;;;;;;;2.62;63.99;99042.55;1698379;82;21012;-60
2021/12/20 09:10:15;;;;;;;4.80;1.72;;;;;;;2.65;64.12;99047.55;1729562;81;21061;-60
2021/12/20 09:12:44;;;;;;;7.25;1.65;;;;;;;2.67;64.01;99055.23;1675284;83;21016;-60
2021/12/20 09:15:16;;;;;;;4.65;1.65;;;;;;;2.66;64.06;99053.59;1709056;82;21058;-60
2021/12/20 09:17:46;;;;;;;4.87;1.75;;;;;;;2.64;64.35;99058.89;1729361;80;21020;-60
2021/12/20 09:20:13;;;;;;;6.67;2.00;;;;;;;2.66;64.15;99058.30;1727865;81;21012;-60
2021/12/20 09:22:49;;;;;;;5.33;1.80;;;;;;;2.65;64.20;99057.93;1728220;81;21041;-60
2021/12/20 09:25:08;;;;;;;5.28;1.87;;;;;;;2.67;64.34;99059.95;1709371;81;21028;-60
2021/12/20 09:27:35;;;;;;;4.00;1.90;;;;;;;2.68;64.37;99055.13;1727840;81;21521;-60
2021/12/20 09:30:01;;;;;;;8.88;2.10;;;;;;;2.70;64.26;99057.14;1724064;81;21139;-61
2021/12/20 09:32:28;;;;;;;5.53;1.85;;;;;;;2.66;64.07;99051.81;1715948;81;21052;-60
2021/12/20 09:34:54;;;;;;;7.45;2.33;;;;;;;2.68;63.88;99055.61;1661059;84;21111;-60
2021/12/20 09:37:20;;;;;;;5.97;1.72;;;;;;;2.68;64.02;99056.42;1705094;82;21086;-60
2021/12/20 09:39:52;;;;;;;7.15;2.67;;;;;;;2.65;63.95;99063.13;1705746;82;21520;-59
2021/12/20 09:42:15;;;;;;;5.45;2.12;;;;;;;2.60;64.01;99056.12;1708516;82;21158;-59
2021/12/20 09:44:43;;;;;;;5.62;2.00;;;;;;;2.55;63.95;99046.52;1711808;82;21461;-58
2021/12/20 09:47:10;;;;;;;6.15;1.95;;;;;;;2.56;64.13;99054.20;1668714;83;21126;-61
2021/12/20 09:49:36;;;;;;;4.75;2.02;;;;;;;2.62;63.63;99049.05;1691932;83;21058;-60
2021/12/20 09:52:05;;;;;;;5.85;1.90;;;;;;;2.65;63.79;99049.31;1665342;83;21061;-59
2021/12/20 09:54:31;;;;;;;4.50;1.70;;;;;;;2.71;63.72;99053.63;1698285;82;21152;-59
2021/12/20 09:56:59;;;;;;;5.58;2.02;;;;;;;2.72;63.22;99052.70;1697690;83;21457;-59
2021/12/20 09:59:27;;;;;;;5.40;1.90;;;;;;;2.71;63.58;99056.22;1676651;83;21713;-59
2021/12/20 10:01:53;;;;;;;5.00;1.80;;;;;;;2.74;63.77;99053.42;1692830;83;21086;-59
2021/12/20 10:04:21;;;;;;;4.83;1.98;;;;;;;2.81;63.14;99047.78;1696201;83;22044;-59
2021/12/20 10:06:54;;;;;;;4.40;1.70;;;;;;;2.84;62.70;99048.42;1699192;83;21139;-60
2021/12/20 10:09:26;;;;;;;4.50;1.82;;;;;;;2.84;62.77;99054.92;1660474;84;21139;-60
2021/12/20 10:11:49;;;;;;;5.95;2.27;;;;;;;2.81;62.87;99051.23;1658131;84;21532;-60
2021/12/20 10:14:16;;;;;;;5.12;2.17;;;;;;;2.85;63.28;99047.95;1685350;83;21086;-61
2021/12/20 10:16:44;;;;;;;6.90;2.22;;;;;;;2.95;63.26;99056.28;1711909;82;21047;-59
2021/12/20 10:19:38;;;;;;;6.15;2.22;;;;;;;3.07;63.10;99055.89;1652399;84;21059;-59
2021/12/20 10:22:28;;;;;;;6.05;2.30;;;;;;;3.23;63.02;99049.16;1670506;83;21082;-60
2021/12/20 10:25:02;;;;;;;7.25;2.25;;;;;;;3.41;62.64;99057.39;1670882;84;21073;-60
2021/12/20 10:27:32;;;;;;;4.15;1.98;;;;;;;3.49;61.76;99057.67;1669147;84;21042;-59
2021/12/20 10:30:00;;;;;;;4.85;2.00;;;;;;;3.57;60.74;99055.02;1664306;82;21082;-60
2021/12/20 10:32:41;;;;;;;5.03;2.10;;;;;;;3.57;59.83;99053.72;1696468;82;21152;-60
2021/12/20 10:35:29;;;;;;;5.83;2.20;;;;;;;3.47;59.33;99053.54;1700379;82;21123;-59
2021/12/20 10:38:00;;;;;;;5.10;1.87;;;;;;;3.40;59.95;99058.83;1696737;83;21095;-59
2021/12/20 10:40:26;;;;;;;5.20;2.08;;;;;;;3.32;60.32;99052.86;1698454;83;21059;-59
2021/12/20 10:42:53;;;;;;;5.30;2.02;;;;;;;3.30;60.14;99054.27;1701513;83;21086;-60
2021/12/20 10:45:20;;;;;;;5.50;1.80;;;;;;;3.29;60.24;99055.67;1700783;82;21591;-60
2021/12/20 10:50:46;;;;;;;5.40;2.08;;;;;;;3.32;60.62;99058.89;1803832;77;22572;-60
2021/12/20 10:53:23;;;;;;;7.50;2.90;;;;;;;3.33;60.93;99061.03;1772878;78;21021;-60
2021/12/20 10:56:02;;;;;;;5.40;2.02;;;;;;;3.38;60.77;99058.94;1770501;78;21143;-60
2021/12/20 10:58:38;;;;;;;6.10;1.98;;;;;;;3.36;60.23;99056.89;1770716;79;21110;-60
2021/12/20 11:01:22;;;;;;;4.33;1.52;;;;;;;3.29;59.87;99055.67;1766841;79;21078;-60
2021/12/20 11:03:46;;;;;;;4.80;1.52;;;;;;;3.26;59.48;99064.55;1772492;78;21816;-60
2021/12/20 11:11:30;;;;;;;5.03;2.52;;;;;;;3.18;60.58;99064.25;1776352;78;21015;-59
2021/12/20 11:14:00;;;;;;;6.03;2.50;;;;;;;3.19;60.83;99068.97;1781463;79;21567;-60
2021/12/20 11:16:40;;;;;;;6.50;2.40;;;;;;;3.19;60.62;99063.77;1752097;79;21503;-61
2021/12/20 11:19:28;;;;;;;5.80;2.80;;;;;;;3.20;60.92;99069.34;1761295;79;21915;-60
2021/12/20 11:22:20;;;;;;;6.33;2.65;;;;;;;3.22;61.02;99067.45;1780814;79;21118;-60
2021/12/20 11:24:57;;;;;;;6.15;2.50;;;;;;;3.23;60.91;99073.00;1778303;79;21086;-60
2021/12/20 11:27:33;;;;;;;5.50;2.55;;;;;;;3.20;61.11;99070.64;1742143;80;20993;-60
2021/12/20 11:30:04;;;;;;;5.35;2.00;;;;;;;3.18;61.00;99064.70;1688554;82;21082;-60
2021/12/20 11:32:31;;;;;;;5.70;1.77;;;;;;;3.16;60.37;99076.50;1714135;80;21144;-60
2021/12/20 11:34:58;;;;;;;5.20;2.25;;;;;;;3.15;59.88;99079.58;1711379;80;21521;-61
2021/12/20 11:37:27;;;;;;;4.72;1.67;;;;;;;3.12;60.41;99077.19;1727484;81;21098;-60
2021/12/20 11:39:55;;;;;;;5.67;1.75;;;;;;;3.15;59.98;99074.86;1730855;81;21400;-60
2021/12/20 11:42:21;;;;;;;5.30;2.22;;;;;;;3.13;59.63;99074.14;1726101;81;21837;-60
2021/12/20 11:44:50;;;;;;;5.20;1.62;;;;;;;3.15;59.80;99075.67;1723147;81;21053;-60
2021/12/20 11:47:52;;;;;;;3.65;1.52;;;;;;;3.19;59.88;99086.69;1694254;81;21127;-59
2021/12/20 11:50:22;;;;;;;8.18;2.08;;;;;;;3.18;59.83;99085.05;1739501;80;21362;-59
2021/12/20 11:52:51;;;;;;;5.83;1.70;;;;;;;3.12;60.24;99082.39;1726298;80;21050;-61
2021/12/20 11:55:28;;;;;;;4.20;1.60;;;;;;;3.13;60.42;99081.94;1774584;78;21129;-60
2021/12/20 11:58:00;;;;;;;5.05;1.95;;;;;;;3.18;60.46;99093.29;1771143;78;21602;-61
2021/12/20 12:00:39;;;;;;;6.17;1.87;;;;;;;3.16;60.33;99089.05;1749431;79;21201;-61
2021/12/20 12:03:18;;;;;;;5.15;1.35;;;;;;;3.18;60.77;99086.80;1741518;80;21015;-60